Time;durP1;ratioP1;P1;durP2;ratioP2;P2;SDS_P1;SDS_P2;PMS_P1;PMS_P2;Temp;Humidity;BMP_temperature;BMP_pressure;BME280_temperature;BME280_humidity;BME280_pressure;Samples;Min_cycle;Max_cycle;Signal;HPM_P1;HPM_P2
2022/11/06 00:02:21;;;;;;;10.05;4.40;;;;;;;10.96;100.00;101272.41;2616008;36;20022;-55
2022/11/06 00:04:49;;;;;;;8.87;4.33;;;;;;;10.96;100.00;101266.19;2616891;36;20038;-53
2022/11/06 00:07:15;;;;;;;7.77;4.00;;;;;;;11.01;100.00;101266.63;2616599;36;20306;-58
2022/11/06 00:09:43;;;;;;;7.68;4.30;;;;;;;10.99;100.00;101265.94;2616236;36;20315;-56
2022/11/06 00:12:14;;;;;;;6.63;4.38;;;;;;;10.94;100.00;101258.25;2615562;36;20042;-56
2022/11/06 00:14:42;;;;;;;7.13;4.13;;;;;;;11.14;100.00;101255.69;2614222;36;20034;-54
2022/11/06 00:17:11;;;;;;;10.38;5.07;;;;;;;10.93;100.00;101272.66;2615285;36;20041;-57
2022/11/06 00:19:39;;;;;;;10.35;5.20;;;;;;;11.00;100.00;101270.34;2617206;36;20435;-53
2022/11/06 00:22:07;;;;;;;11.52;5.43;;;;;;;11.04;100.00;101266.38;2617210;36;20447;-56
2022/11/06 00:24:35;;;;;;;9.73;4.03;;;;;;;11.08;100.00;101264.28;2614134;36;20034;-57
2022/11/06 00:27:04;;;;;;;11.27;4.63;;;;;;;11.06;100.00;101259.03;2611991;36;20078;-55
2022/11/06 00:29:35;;;;;;;9.73;5.93;;;;;;;11.00;100.00;101267.63;2615640;36;20031;-51
2022/11/06 00:32:03;;;;;;;12.23;4.60;;;;;;;10.92;100.00;101268.25;2611266;36;20030;-56
2022/11/06 00:34:32;;;;;;;10.02;5.07;;;;;;;10.94;100.00;101273.53;2615626;36;20443;-56
2022/11/06 00:37:04;;;;;;;10.88;5.40;;;;;;;10.99;100.00;101282.09;2613070;54;20038;-56
2022/11/06 00:39:32;;;;;;;11.70;4.65;;;;;;;11.12;100.00;101268.44;2613542;36;20061;-57
2022/11/06 00:42:01;;;;;;;10.27;4.43;;;;;;;10.91;100.00;101266.56;2613644;36;20034;-53
2022/11/06 00:44:29;;;;;;;11.60;5.33;;;;;;;11.01;100.00;101261.25;2614050;31;20057;-52
2022/11/06 00:47:00;;;;;;;7.15;4.43;;;;;;;10.87;100.00;101268.66;2612975;36;20567;-54
2022/11/06 00:49:30;;;;;;;9.43;4.22;;;;;;;10.96;100.00;101256.25;2613609;36;20038;-54
2022/11/06 00:51:58;;;;;;;8.93;4.20;;;;;;;11.01;100.00;101269.34;2613207;36;20475;-56
2022/11/06 00:54:26;;;;;;;8.23;4.70;;;;;;;10.89;100.00;101255.06;2612927;36;20041;-57
2022/11/06 00:56:54;;;;;;;10.70;4.85;;;;;;;10.87;100.00;101263.25;2613073;36;20034;-55
2022/11/06 00:59:23;;;;;;;10.77;4.53;;;;;;;10.97;100.00;101266.06;2613117;36;20555;-56
2022/11/06 01:01:51;;;;;;;12.02;5.05;;;;;;;10.96;100.00;101261.66;2613177;36;20419;-51
2022/11/06 01:04:24;;;;;;;7.72;4.40;;;;;;;10.89;100.00;101260.44;2612803;36;20383;-55
2022/11/06 01:06:55;;;;;;;10.57;4.78;;;;;;;10.98;100.00;101264.19;2613412;36;20058;-55
2022/11/06 01:09:25;;;;;;;9.07;5.05;;;;;;;10.90;100.00;101255.94;2612396;36;20090;-57
2022/11/06 01:11:55;;;;;;;11.20;5.25;;;;;;;10.83;100.00;101256.41;2612163;36;20045;-55
2022/11/06 01:14:25;;;;;;;10.45;5.47;;;;;;;10.87;100.00;101247.09;2612701;36;20073;-54
2022/11/06 01:16:53;;;;;;;8.52;4.45;;;;;;;11.01;100.00;101242.41;2612934;36;20034;-54
2022/11/06 01:19:25;;;;;;;13.10;5.97;;;;;;;10.98;100.00;101248.03;2614423;36;20029;-54
2022/11/06 01:21:54;;;;;;;10.02;5.88;;;;;;;10.92;100.00;101233.25;2615182;36;20041;-53
2022/11/06 01:24:25;;;;;;;12.15;5.15;;;;;;;10.83;100.00;101229.50;2614980;36;20055;-56
2022/11/06 01:26:53;;;;;;;8.57;4.68;;;;;;;11.00;100.00;101236.16;2614677;31;20563;-54
2022/11/06 01:29:22;;;;;;;8.07;5.03;;;;;;;10.98;100.00;101242.66;2614813;36;20022;-52
2022/11/06 01:31:51;;;;;;;9.20;5.63;;;;;;;11.01;100.00;101231.63;2611125;36;20330;-52
2022/11/06 01:34:20;;;;;;;10.05;5.40;;;;;;;11.13;100.00;101227.91;2614419;36;20299;-53
2022/11/06 01:36:50;;;;;;;10.40;4.50;;;;;;;11.25;100.00;101238.59;2615196;36;20065;-56
2022/11/06 01:39:19;;;;;;;7.85;4.85;;;;;;;11.09;100.00;101237.22;2615460;36;20034;-55
2022/11/06 01:41:50;;;;;;;14.82;4.97;;;;;;;11.13;100.00;101227.03;2615232;36;20041;-54
2022/11/06 01:44:48;;;;;;;10.55;5.65;;;;;;;10.99;100.00;101233.59;2616100;36;20486;-55
2022/11/06 01:47:22;;;;;;;8.20;5.23;;;;;;;11.19;100.00;101234.63;2615290;36;20018;-56
2022/11/06 01:49:52;;;;;;;11.25;5.30;;;;;;;11.07;100.00;101222.16;2615509;36;20311;-57
2022/11/06 01:52:25;;;;;;;11.35;4.75;;;;;;;11.04;100.00;101220.59;2616668;31;20540;-56
2022/11/06 01:54:58;;;;;;;13.45;5.70;;;;;;;11.12;100.00;101223.50;2615440;36;20022;-55
2022/11/06 01:57:27;;;;;;;11.85;5.03;;;;;;;11.09;100.00;101218.38;2615557;36;20053;-57
2022/11/06 01:59:56;;;;;;;15.48;5.50;;;;;;;11.15;100.00;101223.22;2615122;36;20026;-50
2022/11/06 02:02:25;;;;;;;9.82;5.05;;;;;;;11.12;100.00;101226.19;2615348;31;20042;-57
2022/11/06 02:04:53;;;;;;;10.23;4.85;;;;;;;10.88;100.00;101221.06;2615873;36;20448;-54
2022/11/06 02:07:25;;;;;;;8.70;5.18;;;;;;;10.96;100.00;101213.16;2616191;36;20034;-53
2022/11/06 02:09:53;;;;;;;6.70;4.63;;;;;;;10.89;100.00;101213.81;2614510;31;20046;-58
2022/11/06 02:12:34;;;;;;;7.63;4.78;;;;;;;10.91;100.00;101211.84;2615245;36;20041;-53
2022/11/06 02:15:09;;;;;;;7.00;4.43;;;;;;;11.00;100.00;101208.38;2615677;31;20029;-55
2022/11/06 02:17:57;;;;;;;7.57;4.70;;;;;;;10.99;100.00;101199.44;2615760;36;20578;-56
2022/11/06 02:20:33;;;;;;;7.68;4.55;;;;;;;10.96;100.00;101199.69;2615474;36;20045;-55
2022/11/06 02:23:27;;;;;;;9.65;4.80;;;;;;;11.13;100.00;101190.19;2615770;36;20027;-53
2022/11/06 02:26:06;;;;;;;12.00;4.93;;;;;;;10.95;100.00;101189.91;2614405;36;20034;-57
2022/11/06 02:28:42;;;;;;;8.00;4.38;;;;;;;11.03;100.00;101198.19;2616260;36;20038;-53
2022/11/06 02:31:15;;;;;;;10.48;4.82;;;;;;;10.92;100.00;101198.25;2615573;36;20030;-55
2022/11/06 02:33:50;;;;;;;8.57;4.10;;;;;;;10.87;100.00;101193.25;2615830;36;20081;-52
2022/11/06 02:36:24;;;;;;;11.30;4.20;;;;;;;10.95;100.00;101194.44;2615783;31;20034;-54
2022/11/06 02:38:59;;;;;;;8.85;4.75;;;;;;;10.97;100.00;101187.94;2615423;36;20030;-56
2022/11/06 02:41:33;;;;;;;11.43;4.15;;;;;;;11.00;100.00;101192.22;2615833;36;20023;-52
2022/11/06 02:44:08;;;;;;;10.38;4.22;;;;;;;10.93;100.00;101196.44;2615940;36;20069;-56
2022/11/06 02:46:40;;;;;;;8.18;4.03;;;;;;;10.95;100.00;101191.75;2615864;36;20074;-54
2022/11/06 02:49:13;;;;;;;7.65;4.43;;;;;;;10.93;100.00;101188.34;2615803;36;20038;-58
2022/11/06 02:51:49;;;;;;;10.50;3.70;;;;;;;11.01;100.00;101184.00;2616307;36;20035;-53
2022/11/06 02:54:22;;;;;;;7.35;4.22;;;;;;;10.89;100.00;101178.81;2615681;36;20611;-56
2022/11/06 02:56:54;;;;;;;8.32;3.72;;;;;;;10.83;100.00;101181.03;2616379;36;20027;-55
2022/11/06 02:59:29;;;;;;;13.43;4.63;;;;;;;10.86;100.00;101182.59;2615929;36;20026;-52
2022/11/06 03:02:02;;;;;;;8.40;4.20;;;;;;;10.86;100.00;101179.91;2615903;36;20019;-57
2022/11/06 03:04:36;;;;;;;11.70;4.70;;;;;;;10.98;100.00;101165.44;2616181;36;20459;-57
2022/11/06 03:07:10;;;;;;;11.80;4.50;;;;;;;10.86;100.00;101170.03;2616202;36;20026;-56
2022/11/06 03:09:38;;;;;;;7.18;3.60;;;;;;;11.08;100.00;101167.31;2615920;54;20049;-50
2022/11/06 03:12:25;;;;;;;8.20;3.93;;;;;;;10.87;100.00;101171.72;2615461;54;20035;-56
2022/11/06 03:15:00;;;;;;;8.63;4.20;;;;;;;10.94;100.00;101176.56;2616684;54;20283;-55
2022/11/06 03:17:39;;;;;;;7.68;3.67;;;;;;;10.91;100.00;101182.22;2615198;36;20022;-51
2022/11/06 03:20:19;;;;;;;8.95;4.00;;;;;;;10.76;100.00;101174.47;2614183;36;20061;-52
2022/11/06 03:22:56;;;;;;;8.77;3.75;;;;;;;10.95;100.00;101164.81;2615408;36;20520;-56
2022/11/06 03:25:30;;;;;;;11.13;3.53;;;;;;;10.72;100.00;101170.31;2614691;36;20052;-54
2022/11/06 03:28:05;;;;;;;11.27;4.28;;;;;;;10.68;100.00;101168.88;2613925;36;20037;-56
2022/11/06 03:30:41;;;;;;;8.25;3.65;;;;;;;10.80;100.00;101175.91;2615772;36;20458;-57
2022/11/06 03:33:15;;;;;;;8.73;3.78;;;;;;;10.77;100.00;101176.16;2616144;36;20041;-54
2022/11/06 03:35:48;;;;;;;9.10;3.50;;;;;;;10.97;100.00;101195.19;2615946;36;20022;-53
2022/11/06 03:38:21;;;;;;;6.53;3.30;;;;;;;10.75;100.00;101186.22;2616207;36;20549;-54
2022/11/06 03:40:54;;;;;;;6.28;3.70;;;;;;;10.88;100.00;101186.03;2615605;36;20027;-57
2022/11/06 03:43:28;;;;;;;6.35;3.50;;;;;;;10.97;100.00;101179.88;2615150;36;20540;-52
2022/11/06 03:46:01;;;;;;;6.88;3.40;;;;;;;10.87;100.00;101182.47;2615219;36;20022;-55
2022/11/06 03:48:34;;;;;;;8.70;3.63;;;;;;;10.97;100.00;101165.56;2616340;31;20061;-54
2022/11/06 03:51:07;;;;;;;8.40;3.30;;;;;;;10.77;100.00;101160.00;2615462;36;20027;-55
2022/11/06 03:53:44;;;;;;;9.27;3.30;;;;;;;11.07;100.00;101154.81;2616208;36;20052;-50
2022/11/06 03:56:18;;;;;;;9.38;3.15;;;;;;;10.99;100.00;101148.25;2615983;36;20046;-53
2022/11/06 03:58:51;;;;;;;11.93;3.75;;;;;;;10.88;100.00;101148.34;2617392;47;20563;-60
2022/11/06 04:01:29;;;;;;;6.47;3.15;;;;;;;10.96;100.00;101153.06;2616183;31;20041;-56
2022/11/06 04:04:01;;;;;;;9.50;3.38;;;;;;;10.95;100.00;101143.28;2616284;36;20038;-54
2022/11/06 04:06:35;;;;;;;8.90;3.40;;;;;;;10.92;100.00;101146.22;2617464;31;20035;-53
2022/11/06 04:14:32;;;;;;;5.85;3.40;;;;;;;10.85;100.00;101138.69;2616973;36;20096;-56
2022/11/06 04:17:07;;;;;;;6.63;3.40;;;;;;;10.92;100.00;101152.47;2616009;31;20030;-56
2022/11/06 04:19:36;;;;;;;7.55;3.40;;;;;;;10.87;100.00;101142.09;2617536;31;20031;-54
2022/11/06 04:22:23;;;;;;;8.90;3.13;;;;;;;10.95;100.00;101148.66;2616170;36;20042;-57
2022/11/06 04:28:00;;;;;;;5.30;3.25;;;;;;;11.06;100.00;101140.53;2615889;36;20404;-52
2022/11/06 04:30:35;;;;;;;7.60;2.95;;;;;;;11.10;100.00;101136.59;2615222;31;20031;-56
2022/11/06 04:33:11;;;;;;;6.72;2.92;;;;;;;11.16;100.00;101129.78;2617109;36;20439;-56
2022/11/06 04:35:52;;;;;;;5.97;3.13;;;;;;;11.05;100.00;101136.09;2616787;36;20573;-54
2022/11/06 04:38:28;;;;;;;8.10;3.90;;;;;;;11.09;100.00;101126.78;2616299;36;20033;-55
2022/11/06 04:41:06;;;;;;;10.27;3.25;;;;;;;10.99;100.00;101118.63;2615912;36;20023;-53
2022/11/06 04:43:42;;;;;;;6.78;3.15;;;;;;;11.07;100.00;101118.00;2615889;36;20034;-55
2022/11/06 04:46:13;;;;;;;7.50;3.08;;;;;;;11.05;100.00;101128.03;2615865;36;20038;-54
2022/11/06 04:48:46;;;;;;;8.90;3.28;;;;;;;10.87;100.00;101117.00;2616533;36;20030;-57
2022/11/06 04:51:17;;;;;;;6.78;2.95;;;;;;;11.04;100.00;101120.91;2613876;36;20042;-56
2022/11/06 04:53:45;;;;;;;7.93;3.53;;;;;;;10.91;100.00;101106.81;2616800;31;20027;-56
2022/11/06 04:56:15;;;;;;;6.38;2.97;;;;;;;11.00;100.00;101106.88;2613886;36;20967;-55
2022/11/06 04:58:43;;;;;;;8.27;3.13;;;;;;;10.97;100.00;101106.31;2613678;36;20030;-57
2022/11/06 05:01:11;;;;;;;5.82;3.13;;;;;;;10.95;100.00;101097.50;2612864;36;20041;-56
2022/11/06 05:03:40;;;;;;;10.05;3.20;;;;;;;11.13;100.00;101095.03;2612409;36;20042;-53
2022/11/06 05:06:11;;;;;;;8.48;3.00;;;;;;;11.12;100.00;101096.88;2612547;36;20030;-55
2022/11/06 05:08:39;;;;;;;7.43;2.88;;;;;;;11.28;100.00;101100.91;2613086;36;20077;-55
2022/11/06 05:11:08;;;;;;;5.93;2.78;;;;;;;11.06;100.00;101105.50;2612873;36;20035;-57
2022/11/06 05:13:37;;;;;;;9.73;3.33;;;;;;;11.11;100.00;101099.72;2612655;36;20764;-52
2022/11/06 05:16:06;;;;;;;7.65;3.60;;;;;;;11.02;100.00;101101.38;2612241;31;20582;-56
2022/11/06 05:18:35;;;;;;;7.65;2.97;;;;;;;11.19;100.00;101103.44;2612565;36;20543;-53
2022/11/06 05:23:47;;;;;;;6.85;2.85;;;;;;;11.07;100.00;101091.06;2613025;36;20512;-53
2022/11/06 05:26:15;;;;;;;6.32;3.20;;;;;;;11.19;100.00;101084.59;2612992;31;20034;-56
2022/11/06 05:28:44;;;;;;;7.95;2.92;;;;;;;11.23;100.00;101085.16;2612473;36;20034;-58
2022/11/06 05:31:12;;;;;;;7.35;3.08;;;;;;;11.33;100.00;101085.22;2613128;36;20057;-54
2022/11/06 05:33:40;;;;;;;6.30;3.03;;;;;;;11.30;100.00;101080.09;2613081;36;20133;-58
2022/11/06 05:36:10;;;;;;;7.28;2.75;;;;;;;11.10;100.00;101085.41;2612918;36;20046;-57
2022/11/06 05:38:38;;;;;;;9.35;3.40;;;;;;;11.19;100.00;101072.97;2612977;36;20038;-57
2022/11/06 05:41:09;;;;;;;8.13;2.33;;;;;;;11.15;100.00;101074.22;2613221;36;20023;-58
2022/11/06 05:43:37;;;;;;;9.10;2.67;;;;;;;11.09;100.00;101072.06;2613468;36;20574;-52
2022/11/06 05:46:06;;;;;;;7.15;2.65;;;;;;;11.19;100.00;101084.59;2612232;36;20023;-59
2022/11/06 05:48:34;;;;;;;6.15;2.60;;;;;;;11.32;100.00;101061.94;2612741;31;20034;-53
2022/11/06 05:51:04;;;;;;;9.63;3.47;;;;;;;11.15;100.00;101049.97;2612889;36;20567;-57
2022/11/06 05:53:32;;;;;;;5.03;2.50;;;;;;;11.20;100.00;101059.34;2612981;36;20035;-54
2022/11/06 05:56:01;;;;;;;6.68;2.42;;;;;;;11.28;100.00;101052.41;2612478;36;20038;-55
2022/11/06 05:58:32;;;;;;;6.78;2.97;;;;;;;11.28;100.00;101049.72;2612807;36;20030;-57
2022/11/06 06:01:01;;;;;;;5.18;2.38;;;;;;;11.13;100.00;101047.41;2614625;31;20030;-56
2022/11/06 06:03:29;;;;;;;5.90;3.30;;;;;;;11.09;100.00;101050.50;2616236;31;20022;-54
2022/11/06 06:05:57;;;;;;;4.22;2.60;;;;;;;11.27;100.00;101053.41;2616751;36;20034;-57
2022/11/06 06:08:26;;;;;;;6.40;2.65;;;;;;;11.15;100.00;101048.13;2616515;31;20550;-57
2022/11/06 06:10:54;;;;;;;4.70;2.50;;;;;;;11.18;100.00;101045.16;2616848;36;20034;-54
2022/11/06 06:13:22;;;;;;;6.57;2.83;;;;;;;11.35;100.00;101051.75;2616476;36;20026;-57
2022/11/06 06:15:53;;;;;;;4.97;2.60;;;;;;;11.24;100.00;101045.63;2615686;36;20030;-54
2022/11/06 06:18:21;;;;;;;4.60;2.65;;;;;;;11.11;100.00;101033.22;2613137;31;20031;-53
2022/11/06 06:20:50;;;;;;;9.52;2.53;;;;;;;11.16;100.00;101035.50;2613040;36;20583;-55
2022/11/06 06:23:18;;;;;;;7.75;2.63;;;;;;;11.23;100.00;101023.19;2615411;36;20030;-57
2022/11/06 06:25:46;;;;;;;7.00;2.85;;;;;;;11.30;100.00;101029.72;2612569;36;20034;-56
2022/11/06 06:28:15;;;;;;;5.60;2.90;;;;;;;11.15;100.00;101021.19;2613990;31;20408;-59
2022/11/06 06:30:43;;;;;;;6.85;2.60;;;;;;;11.09;100.00;101010.94;2612707;36;20427;-53
2022/11/06 06:33:14;;;;;;;5.00;2.75;;;;;;;11.05;100.00;100998.75;2612004;36;20497;-56
2022/11/06 06:35:42;;;;;;;6.68;2.78;;;;;;;11.08;100.00;101011.94;2611095;36;20041;-55
2022/11/06 06:38:11;;;;;;;7.47;2.88;;;;;;;10.83;100.00;101008.69;2612068;36;20035;-56
2022/11/06 06:40:39;;;;;;;6.93;2.50;;;;;;;10.86;100.00;101019.22;2611770;36;20073;-53
2022/11/06 06:43:07;;;;;;;5.65;3.15;;;;;;;10.83;100.00;101022.16;2612047;36;20300;-53
2022/11/06 06:45:36;;;;;;;8.45;2.75;;;;;;;10.80;100.00;101027.81;2612096;36;20063;-58
2022/11/06 06:48:05;;;;;;;8.38;3.17;;;;;;;10.75;100.00;101027.38;2612903;36;20037;-56
2022/11/06 06:50:37;;;;;;;7.88;3.17;;;;;;;10.83;100.00;101024.84;2613969;36;20072;-56
2022/11/06 06:53:05;;;;;;;8.00;3.67;;;;;;;10.69;100.00;101023.38;2613952;36;20027;-57
2022/11/06 06:55:33;;;;;;;7.80;2.95;;;;;;;10.62;100.00;101013.28;2612825;36;20030;-50
2022/11/06 06:58:03;;;;;;;6.80;3.35;;;;;;;10.62;100.00;101029.44;2613048;36;20030;-55
2022/11/06 07:00:31;;;;;;;;;;;;;;;10.73;100.00;101023.94;2613083;36;20423;-53
2022/11/06 07:02:59;;;;;;;8.50;2.85;;;;;;;10.69;100.00;101025.22;2612601;36;19965;-54
2022/11/06 07:05:27;;;;;;;6.13;3.03;;;;;;;10.59;100.00;101032.38;2613419;36;20034;-56
2022/11/06 07:07:58;;;;;;;8.77;3.35;;;;;;;10.59;100.00;101033.22;2612271;36;20023;-53
2022/11/06 07:10:27;;;;;;;6.72;2.97;;;;;;;10.56;100.00;101027.28;2612051;36;20443;-55
2022/11/06 07:12:55;;;;;;;5.57;2.80;;;;;;;10.71;100.00;101025.09;2613191;36;20031;-56
2022/11/06 07:15:23;;;;;;;10.50;4.00;;;;;;;10.72;100.00;101013.31;2612627;36;20042;-55
2022/11/06 07:17:52;;;;;;;7.20;3.55;;;;;;;10.74;100.00;100993.34;2613256;36;20034;-52
2022/11/06 07:20:20;;;;;;;10.45;3.25;;;;;;;10.85;100.00;101006.75;2613036;36;20074;-56
2022/11/06 07:22:48;;;;;;;5.10;2.72;;;;;;;10.91;100.00;101004.47;2613074;36;20022;-55
2022/11/06 07:25:19;;;;;;;6.10;3.00;;;;;;;10.85;100.00;101001.34;2613186;36;20030;-53
2022/11/06 07:27:48;;;;;;;11.10;3.47;;;;;;;10.90;100.00;101000.09;2613175;36;20023;-54
2022/11/06 07:30:16;;;;;;;6.60;3.40;;;;;;;10.96;100.00;101018.41;2614986;31;20038;-57
2022/11/06 07:32:45;;;;;;;7.32;3.17;;;;;;;10.89;100.00;101011.84;2614793;36;20452;-56
2022/11/06 07:35:13;;;;;;;10.73;3.08;;;;;;;11.00;100.00;101001.84;2614080;36;20118;-56
2022/11/06 07:37:41;;;;;;;6.50;3.17;;;;;;;11.11;100.00;101000.03;2614560;36;20042;-54
2022/11/06 07:40:13;;;;;;;8.25;3.20;;;;;;;10.99;100.00;100999.28;2613051;36;20031;-60
2022/11/06 07:42:44;;;;;;;4.25;2.95;;;;;;;10.87;100.00;100993.97;2614278;31;20034;-53
2022/11/06 07:45:12;;;;;;;10.88;3.65;;;;;;;10.78;100.00;100994.81;2614134;31;20037;-56
2022/11/06 07:47:41;;;;;;;7.90;2.97;;;;;;;10.94;100.00;100994.31;2616794;31;20411;-55
2022/11/06 07:50:09;;;;;;;7.13;3.20;;;;;;;10.97;100.00;100982.44;2614025;36;20033;-53
2022/11/06 07:52:38;;;;;;;6.55;2.67;;;;;;;10.91;100.00;100993.72;2613534;36;20041;-56
2022/11/06 07:55:07;;;;;;;7.97;2.78;;;;;;;10.96;100.00;100999.56;2616137;36;20034;-58
2022/11/06 07:57:38;;;;;;;8.20;3.15;;;;;;;10.83;100.00;100992.53;2617349;36;20569;-58
2022/11/06 08:00:10;;;;;;;8.15;3.30;;;;;;;11.09;100.00;100996.66;2616963;36;20034;-52
2022/11/06 08:02:39;;;;;;;8.73;3.40;;;;;;;10.93;100.00;100997.97;2617286;36;20030;-54
2022/11/06 08:05:07;;;;;;;9.07;2.90;;;;;;;11.10;100.00;100993.81;2617886;36;20427;-54
2022/11/06 08:07:36;;;;;;;6.15;2.88;;;;;;;11.18;100.00;100995.81;2616681;36;20034;-59
2022/11/06 08:10:04;;;;;;;7.97;3.58;;;;;;;11.05;100.00;100991.50;2617624;31;20038;-56
2022/11/06 08:12:32;;;;;;;10.85;3.33;;;;;;;10.93;100.00;100992.59;2617558;36;20451;-51
2022/11/06 08:15:01;;;;;;;9.40;3.78;;;;;;;11.19;100.00;100995.69;2617473;36;20540;-55
2022/11/06 08:17:32;;;;;;;7.20;2.70;;;;;;;11.32;100.00;100990.06;2616327;36;20026;-56
2022/11/06 08:20:00;;;;;;;9.00;2.83;;;;;;;11.31;100.00;100988.34;2613802;36;20093;-54
2022/11/06 08:22:29;;;;;;;6.40;2.40;;;;;;;11.28;100.00;100991.31;2614447;31;20057;-58
2022/11/06 08:24:57;;;;;;;8.98;3.00;;;;;;;11.18;100.00;100985.88;2616703;36;20022;-61
2022/11/06 08:27:25;;;;;;;5.40;2.67;;;;;;;11.39;100.00;100977.72;2613894;36;20061;-55
2022/11/06 08:29:54;;;;;;;10.13;2.85;;;;;;;11.32;100.00;100970.31;2614172;36;20034;-56
2022/11/06 08:32:22;;;;;;;7.35;3.17;;;;;;;11.57;100.00;100980.59;2617281;36;20031;-55
2022/11/06 08:34:53;;;;;;;7.88;2.60;;;;;;;11.55;100.00;100973.63;2613471;36;20041;-55
2022/11/06 08:37:21;;;;;;;8.32;2.72;;;;;;;11.64;100.00;100974.63;2614066;36;20030;-56
2022/11/06 08:39:50;;;;;;;4.85;2.17;;;;;;;11.72;100.00;100977.50;2612957;36;20551;-57
2022/11/06 08:42:18;;;;;;;6.85;2.40;;;;;;;11.88;100.00;100967.00;2616573;31;20581;-56
2022/11/06 08:44:46;;;;;;;4.63;2.20;;;;;;;11.95;100.00;100959.19;2613292;36;20026;-56
2022/11/06 08:47:15;;;;;;;3.08;2.20;;;;;;;12.02;100.00;100962.19;2613416;36;20023;-57
2022/11/06 08:49:43;;;;;;;3.15;2.30;;;;;;;11.94;100.00;100941.34;2615214;36;20022;-57
2022/11/06 08:52:14;;;;;;;4.63;2.25;;;;;;;12.26;100.00;100932.91;2613533;31;20026;-58
2022/11/06 08:54:43;;;;;;;7.72;3.17;;;;;;;12.41;100.00;100944.09;2613487;36;20023;-56
2022/11/06 08:57:11;;;;;;;5.15;2.20;;;;;;;12.47;100.00;100934.56;2613211;36;20039;-58
2022/11/06 08:59:39;;;;;;;4.53;2.10;;;;;;;12.71;100.00;100938.59;2613810;36;20031;-59
2022/11/06 09:02:08;;;;;;;8.00;2.22;;;;;;;12.81;100.00;100928.59;2613282;36;20053;-57
2022/11/06 09:04:36;;;;;;;8.75;2.42;;;;;;;12.77;100.00;100921.78;2614936;31;20413;-57
2022/11/06 09:07:04;;;;;;;24.23;2.90;;;;;;;12.58;100.00;100925.41;2613520;36;20566;-57
2022/11/06 09:09:35;;;;;;;4.55;2.28;;;;;;;12.48;100.00;100914.66;2613831;36;20026;-58
2022/11/06 09:12:04;;;;;;;6.32;2.40;;;;;;;12.47;100.00;100902.16;2614958;31;20022;-58
2022/11/06 09:14:32;;;;;;;4.95;1.92;;;;;;;12.59;100.00;100906.38;2613749;36;20034;-57
2022/11/06 09:17:01;;;;;;;7.25;2.33;;;;;;;12.43;100.00;100911.56;2613506;36;20421;-53
2022/11/06 09:19:29;;;;;;;5.97;2.50;;;;;;;12.61;100.00;100901.66;2614575;36;20041;-55
2022/11/06 09:21:57;;;;;;;4.93;2.25;;;;;;;12.36;100.00;100896.94;2614140;36;20439;-57
2022/11/06 09:24:25;;;;;;;4.47;2.10;;;;;;;12.43;100.00;100895.34;2613539;36;20053;-53
2022/11/06 09:26:57;;;;;;;5.20;2.13;;;;;;;12.44;100.00;100903.31;2613444;36;20523;-59
2022/11/06 09:29:25;;;;;;;5.88;1.83;;;;;;;12.45;100.00;100887.94;2615267;31;20037;-58
2022/11/06 09:31:53;;;;;;;5.47;2.07;;;;;;;12.61;100.00;100892.72;2616346;36;20022;-58
2022/11/06 09:34:22;;;;;;;5.30;2.08;;;;;;;12.80;100.00;100897.19;2617316;36;20030;-56
2022/11/06 09:36:50;;;;;;;4.63;2.53;;;;;;;12.87;100.00;100897.44;2616314;36;20022;-57
2022/11/06 09:39:19;;;;;;;6.90;1.95;;;;;;;12.93;100.00;100886.88;2617817;31;20037;-60
2022/11/06 09:41:57;;;;;;;5.93;2.22;;;;;;;13.44;100.00;100889.13;2615918;36;20027;-57
2022/11/06 09:44:38;;;;;;;6.80;2.10;;;;;;;13.59;100.00;100882.19;2615812;36;20031;-56
2022/11/06 09:47:11;;;;;;;6.13;2.20;;;;;;;13.72;100.00;100880.94;2614071;36;20682;-53
2022/11/06 09:49:45;;;;;;;5.80;2.15;;;;;;;13.59;100.00;100875.91;2615013;36;20022;-57
2022/11/06 09:52:18;;;;;;;4.28;1.70;;;;;;;13.66;100.00;100883.25;2615891;36;20029;-51
2022/11/06 09:54:50;;;;;;;6.05;2.10;;;;;;;13.47;100.00;100883.41;2615875;36;20045;-58
2022/11/06 09:57:24;;;;;;;2.47;1.75;;;;;;;13.63;100.00;100885.41;2613370;36;20026;-53
2022/11/06 09:59:53;;;;;;;5.75;2.10;;;;;;;13.39;100.00;100881.47;2614917;36;20026;-57
2022/11/06 10:02:29;;;;;;;9.13;2.13;;;;;;;13.36;100.00;100870.13;2616207;36;20057;-58
2022/11/06 10:05:05;;;;;;;3.47;2.00;;;;;;;13.34;100.00;100881.09;2615863;36;20025;-56
2022/11/06 10:07:37;;;;;;;7.15;1.90;;;;;;;13.39;100.00;100884.19;2617282;36;20060;-58
2022/11/06 10:10:08;;;;;;;4.72;1.95;;;;;;;13.45;100.00;100872.75;2617211;31;20030;-55
2022/11/06 10:12:49;;;;;;;4.30;1.98;;;;;;;13.23;100.00;100876.72;2614684;36;20034;-57
2022/11/06 10:15:26;;;;;;;6.60;2.30;;;;;;;13.22;100.00;100869.63;2615116;36;20431;-57
2022/11/06 10:18:02;;;;;;;2.67;1.70;;;;;;;13.25;100.00;100879.28;2615778;31;20397;-57
2022/11/06 10:20:33;;;;;;;5.43;1.92;;;;;;;13.27;100.00;100874.59;2616180;36;20030;-56
2022/11/06 10:23:07;;;;;;;5.45;1.85;;;;;;;13.11;100.00;100877.97;2612445;36;20428;-58
2022/11/06 10:25:47;;;;;;;8.25;1.67;;;;;;;13.17;100.00;100871.94;2615531;36;20053;-57
2022/11/06 10:28:32;;;;;;;5.20;1.88;;;;;;;13.25;100.00;100863.94;2613344;36;20034;-58
2022/11/06 10:31:10;;;;;;;4.63;1.70;;;;;;;13.54;100.00;100857.44;2613674;36;20053;-59
2022/11/06 10:33:52;;;;;;;3.03;1.50;;;;;;;13.67;100.00;100846.25;2613041;36;20030;-58
2022/11/06 10:36:24;;;;;;;9.38;5.35;;;;;;;13.55;100.00;100837.53;2614224;36;20049;-57
2022/11/06 10:38:55;;;;;;;4.70;3.78;;;;;;;13.56;100.00;100833.81;2614931;36;20023;-58
2022/11/06 10:41:27;;;;;;;5.13;1.60;;;;;;;13.62;100.00;100833.19;2616586;36;20045;-58
2022/11/06 10:44:04;;;;;;;5.18;1.85;;;;;;;13.58;100.00;100829.09;2617386;36;20539;-58
2022/11/06 10:46:37;;;;;;;3.22;1.50;;;;;;;13.59;100.00;100828.09;2616851;31;20035;-58
2022/11/06 10:49:15;;;;;;;5.60;1.88;;;;;;;13.36;100.00;100826.88;2616650;36;20029;-57
2022/11/06 10:52:03;;;;;;;4.30;1.92;;;;;;;13.20;100.00;100828.38;2614825;36;20439;-55
2022/11/06 10:54:44;;;;;;;4.50;2.03;;;;;;;13.21;100.00;100829.25;2612273;36;20034;-58
2022/11/06 10:57:35;;;;;;;6.60;2.28;;;;;;;13.15;100.00;100828.00;2613404;31;20038;-56
2022/11/06 11:00:07;;;;;;;4.18;1.50;;;;;;;13.12;100.00;100831.03;2611655;36;20031;-57
2022/11/06 11:02:39;;;;;;;5.60;1.80;;;;;;;12.93;100.00;100816.63;2612961;36;20053;-57
2022/11/06 11:05:14;;;;;;;4.07;2.00;;;;;;;13.09;100.00;100824.06;2591793;36;20035;-58
2022/11/06 11:07:44;;;;;;;8.20;2.00;;;;;;;13.10;100.00;100819.50;2614411;36;20026;-52
2022/11/06 11:10:29;;;;;;;3.30;1.60;;;;;;;12.93;100.00;100810.41;2615175;31;20531;-57
2022/11/06 11:13:00;;;;;;;7.57;2.88;;;;;;;13.16;100.00;100802.66;2613461;31;20555;-59
2022/11/06 11:15:34;;;;;;;3.72;1.90;;;;;;;12.86;100.00;100796.63;2608015;36;20053;-55
2022/11/06 11:18:20;;;;;;;6.93;2.00;;;;;;;13.10;100.00;100790.66;2607219;31;20034;-57
2022/11/06 11:20:49;;;;;;;5.00;2.20;;;;;;;13.15;100.00;100792.88;2607874;31;20034;-54
2022/11/06 11:23:20;;;;;;;;;;;;;;;13.31;100.00;100792.19;2608087;36;20046;-56
2022/11/06 11:25:51;;;;;;;6.68;2.35;;;;;;;13.14;100.00;100780.38;2607572;36;19954;-56
2022/11/06 11:28:31;;;;;;;8.25;2.05;;;;;;;13.24;100.00;100775.72;2606090;36;20637;-56
2022/11/06 11:31:07;;;;;;;5.93;2.08;;;;;;;13.22;100.00;100776.88;2608567;36;20061;-56
2022/11/06 11:33:37;;;;;;;5.13;3.03;;;;;;;13.26;100.00;100767.47;2608852;36;20031;-55
2022/11/06 11:36:07;;;;;;;9.57;2.00;;;;;;;13.27;100.00;100756.50;2607669;36;20023;-57
2022/11/06 11:38:38;;;;;;;5.72;4.10;;;;;;;13.43;100.00;100755.81;2608048;36;21063;-57
2022/11/06 11:41:13;;;;;;;5.25;2.35;;;;;;;13.31;100.00;100752.47;2606854;36;20038;-57
2022/11/06 11:43:42;;;;;;;6.72;3.25;;;;;;;13.29;100.00;100754.50;2607182;36;20035;-58
2022/11/06 11:46:21;;;;;;;;;;;;;;;13.54;100.00;100737.63;2607269;32;20078;-58
2022/11/06 11:48:51;;;;;;;2.65;1.80;;;;;;;13.46;100.00;100741.13;2607243;36;20439;-58